sensor_id;sensor_type;location;lat;lon;timestamp;pressure;altitude;pressure_sealevel;temperature;humidity
58223;BME280;44020;50.890;15.796;2022-12-24T00:00:14;96307.48;;;6.15;94.28
58223;BME280;44020;50.890;15.796;2022-12-24T00:03:01;96313.64;;;6.12;94.56
58223;BME280;44020;50.890;15.796;2022-12-24T00:05:28;96315.76;;;6.12;94.59
58223;BME280;44020;50.890;15.796;2022-12-24T00:07:56;96317.73;;;6.12;94.55
58223;BME280;44020;50.890;15.796;2022-12-24T00:10:24;96318.41;;;6.10;94.28
58223;BME280;44020;50.890;15.796;2022-12-24T00:12:51;96318.45;;;6.09;94.35
58223;BME280;44020;50.890;15.796;2022-12-24T00:15:18;96313.10;;;6.10;94.82
58223;BME280;44020;50.890;15.796;2022-12-24T00:17:45;96313.38;;;6.11;94.53
58223;BME280;44020;50.890;15.796;2022-12-24T00:20:12;96316.70;;;6.11;94.56
58223;BME280;44020;50.890;15.796;2022-12-24T00:22:40;96320.11;;;6.11;94.83
58223;BME280;44020;50.890;15.796;2022-12-24T00:25:07;96326.17;;;6.10;94.82
58223;BME280;44020;50.890;15.796;2022-12-24T00:27:35;96330.08;;;6.10;94.76
58223;BME280;44020;50.890;15.796;2022-12-24T00:30:03;96333.48;;;6.09;94.82
58223;BME280;44020;50.890;15.796;2022-12-24T00:32:30;96339.15;;;6.08;94.60
58223;BME280;44020;50.890;15.796;2022-12-24T00:34:58;96339.59;;;6.10;94.79
58223;BME280;44020;50.890;15.796;2022-12-24T00:37:25;96349.56;;;6.11;94.89
58223;BME280;44020;50.890;15.796;2022-12-24T00:39:52;96348.89;;;6.12;95.01
58223;BME280;44020;50.890;15.796;2022-12-24T00:42:19;96351.02;;;6.15;95.14
58223;BME280;44020;50.890;15.796;2022-12-24T00:44:46;96360.48;;;6.15;95.02
58223;BME280;44020;50.890;15.796;2022-12-24T00:47:14;96363.90;;;6.22;96.04
58223;BME280;44020;50.890;15.796;2022-12-24T00:49:41;96366.14;;;6.34;96.07
58223;BME280;44020;50.890;15.796;2022-12-24T00:52:08;96370.91;;;6.41;96.25
58223;BME280;44020;50.890;15.796;2022-12-24T00:54:35;96382.42;;;6.52;96.53
58223;BME280;44020;50.890;15.796;2022-12-24T00:57:02;96380.56;;;6.65;96.80
58223;BME280;44020;50.890;15.796;2022-12-24T00:59:30;96393.13;;;6.76;97.37
58223;BME280;44020;50.890;15.796;2022-12-24T01:01:57;96387.85;;;6.88;97.99
58223;BME280;44020;50.890;15.796;2022-12-24T01:04:24;96371.80;;;6.94;97.62
58223;BME280;44020;50.890;15.796;2022-12-24T01:07:10;96374.27;;;7.01;97.75
58223;BME280;44020;50.890;15.796;2022-12-24T01:09:37;96361.41;;;7.05;97.54
58223;BME280;44020;50.890;15.796;2022-12-24T01:12:05;96356.85;;;7.10;97.53
58223;BME280;44020;50.890;15.796;2022-12-24T01:14:32;96358.82;;;7.16;97.72
58223;BME280;44020;50.890;15.796;2022-12-24T01:16:59;96350.74;;;7.20;97.50
58223;BME280;44020;50.890;15.796;2022-12-24T01:19:26;96342.38;;;7.23;97.54
58223;BME280;44020;50.890;15.796;2022-12-24T01:21:53;96341.02;;;7.25;97.48
58223;BME280;44020;50.890;15.796;2022-12-24T01:24:21;96347.98;;;7.26;97.41
58223;BME280;44020;50.890;15.796;2022-12-24T01:26:48;96355.66;;;7.27;97.25
58223;BME280;44020;50.890;15.796;2022-12-24T01:29:16;96359.83;;;7.28;97.18
58223;BME280;44020;50.890;15.796;2022-12-24T01:31:43;96362.84;;;7.30;97.37
58223;BME280;44020;50.890;15.796;2022-12-24T01:34:11;96359.88;;;7.32;97.06
58223;BME280;44020;50.890;15.796;2022-12-24T01:36:38;96363.52;;;7.33;97.20
58223;BME280;44020;50.890;15.796;2022-12-24T01:39:05;96359.88;;;7.34;97.26
58223;BME280;44020;50.890;15.796;2022-12-24T01:41:32;96365.47;;;7.37;97.19
58223;BME280;44020;50.890;15.796;2022-12-24T01:44:25;96365.88;;;7.39;97.25
58223;BME280;44020;50.890;15.796;2022-12-24T01:49:36;96365.80;;;7.37;96.87
58223;BME280;44020;50.890;15.796;2022-12-24T01:52:14;96363.81;;;7.38;96.78
58223;BME280;44020;50.890;15.796;2022-12-24T01:54:43;96367.18;;;7.40;96.78
58223;BME280;44020;50.890;15.796;2022-12-24T01:57:24;96369.55;;;7.42;96.85
58223;BME280;44020;50.890;15.796;2022-12-24T01:59:57;96376.77;;;7.44;96.81
58223;BME280;44020;50.890;15.796;2022-12-24T02:02:28;96374.55;;;7.47;96.82
58223;BME280;44020;50.890;15.796;2022-12-24T02:05:05;96378.61;;;7.49;96.86
58223;BME280;44020;50.890;15.796;2022-12-24T02:07:34;96382.42;;;7.50;96.92
58223;BME280;44020;50.890;15.796;2022-12-24T02:10:03;96386.58;;;7.52;96.65
58223;BME280;44020;50.890;15.796;2022-12-24T02:12:34;96392.55;;;7.53;96.72
58223;BME280;44020;50.890;15.796;2022-12-24T02:15:04;96391.73;;;7.54;96.57
58223;BME280;44020;50.890;15.796;2022-12-24T02:18:08;96397.75;;;7.56;96.60
58223;BME280;44020;50.890;15.796;2022-12-24T02:20:58;96402.04;;;7.60;96.67
58223;BME280;44020;50.890;15.796;2022-12-24T02:30:03;96403.83;;;7.73;96.80
58223;BME280;44020;50.890;15.796;2022-12-24T02:38:16;96394.33;;;7.83;96.26
58223;BME280;44020;50.890;15.796;2022-12-24T02:41:02;96394.89;;;7.85;96.30
58223;BME280;44020;50.890;15.796;2022-12-24T02:43:36;96398.71;;;7.88;96.33
58223;BME280;44020;50.890;15.796;2022-12-24T02:46:27;96402.27;;;7.90;96.37
58223;BME280;44020;50.890;15.796;2022-12-24T02:48:58;96404.26;;;7.94;96.40
58223;BME280;44020;50.890;15.796;2022-12-24T02:51:26;96401.81;;;7.98;96.56
58223;BME280;44020;50.890;15.796;2022-12-24T02:53:53;96403.13;;;8.01;96.55
58223;BME280;44020;50.890;15.796;2022-12-24T02:56:30;96405.02;;;8.06;96.60
58223;BME280;44020;50.890;15.796;2022-12-24T03:04:49;96414.27;;;8.14;96.13
58223;BME280;44020;50.890;15.796;2022-12-24T03:07:25;96413.84;;;8.18;96.06
58223;BME280;44020;50.890;15.796;2022-12-24T03:10:22;96414.48;;;8.20;96.16
58223;BME280;44020;50.890;15.796;2022-12-24T03:12:55;96417.23;;;8.26;96.02
58223;BME280;44020;50.890;15.796;2022-12-24T03:15:25;96420.92;;;8.26;95.93
58223;BME280;44020;50.890;15.796;2022-12-24T03:17:57;96417.04;;;8.28;95.64
58223;BME280;44020;50.890;15.796;2022-12-24T03:20:33;96427.09;;;8.31;95.16
58223;BME280;44020;50.890;15.796;2022-12-24T03:23:02;96427.65;;;8.32;95.17
58223;BME280;44020;50.890;15.796;2022-12-24T03:25:31;96434.80;;;8.34;95.28
58223;BME280;44020;50.890;15.796;2022-12-24T03:28:02;96431.84;;;8.38;95.30
58223;BME280;44020;50.890;15.796;2022-12-24T03:30:31;96432.64;;;8.41;95.27
58223;BME280;44020;50.890;15.796;2022-12-24T03:32:59;96436.75;;;8.43;95.21
58223;BME280;44020;50.890;15.796;2022-12-24T03:35:26;96435.17;;;8.45;95.02
58223;BME280;44020;50.890;15.796;2022-12-24T03:37:53;96437.55;;;8.46;94.55
58223;BME280;44020;50.890;15.796;2022-12-24T03:40:21;96438.86;;;8.47;94.43
58223;BME280;44020;50.890;15.796;2022-12-24T03:42:48;96444.05;;;8.51;94.14
58223;BME280;44020;50.890;15.796;2022-12-24T03:45:15;96442.97;;;8.51;94.22
58223;BME280;44020;50.890;15.796;2022-12-24T03:47:42;96456.41;;;8.51;94.28
58223;BME280;44020;50.890;15.796;2022-12-24T03:50:10;96463.77;;;8.54;94.41
58223;BME280;44020;50.890;15.796;2022-12-24T03:52:37;96463.88;;;8.58;94.30
58223;BME280;44020;50.890;15.796;2022-12-24T03:55:05;96463.52;;;8.58;94.15
58223;BME280;44020;50.890;15.796;2022-12-24T03:57:32;96464.73;;;8.56;94.07
58223;BME280;44020;50.890;15.796;2022-12-24T03:59:59;96467.39;;;8.56;94.03
58223;BME280;44020;50.890;15.796;2022-12-24T04:02:26;96475.85;;;8.56;93.79
58223;BME280;44020;50.890;15.796;2022-12-24T04:04:54;96474.84;;;8.58;93.85
58223;BME280;44020;50.890;15.796;2022-12-24T04:07:21;96472.92;;;8.60;93.87
58223;BME280;44020;50.890;15.796;2022-12-24T04:09:48;96480.86;;;8.60;93.89
58223;BME280;44020;50.890;15.796;2022-12-24T04:12:16;96483.79;;;8.61;93.69
58223;BME280;44020;50.890;15.796;2022-12-24T04:14:43;96486.27;;;8.61;93.34
58223;BME280;44020;50.890;15.796;2022-12-24T04:17:10;96485.20;;;8.61;93.13
58223;BME280;44020;50.890;15.796;2022-12-24T04:19:37;96486.21;;;8.62;93.10
58223;BME280;44020;50.890;15.796;2022-12-24T04:22:04;96493.05;;;8.62;93.23
58223;BME280;44020;50.890;15.796;2022-12-24T04:24:32;96491.33;;;8.64;93.30
58223;BME280;44020;50.890;15.796;2022-12-24T04:26:59;96494.08;;;8.65;93.27
58223;BME280;44020;50.890;15.796;2022-12-24T04:29:26;96499.02;;;8.65;93.29
58223;BME280;44020;50.890;15.796;2022-12-24T04:31:53;96496.08;;;8.66;93.32
58223;BME280;44020;50.890;15.796;2022-12-24T04:34:21;96501.36;;;8.67;93.16
58223;BME280;44020;50.890;15.796;2022-12-24T04:36:48;96497.77;;;8.67;93.05
58223;BME280;44020;50.890;15.796;2022-12-24T04:39:15;96495.66;;;8.67;92.87
58223;BME280;44020;50.890;15.796;2022-12-24T04:41:42;96501.11;;;8.68;92.75
58223;BME280;44020;50.890;15.796;2022-12-24T04:44:10;96501.27;;;8.70;92.78
58223;BME280;44020;50.890;15.796;2022-12-24T04:46:37;96498.35;;;8.71;92.79
58223;BME280;44020;50.890;15.796;2022-12-24T04:49:04;96505.20;;;8.72;92.88
58223;BME280;44020;50.890;15.796;2022-12-24T04:51:32;96505.98;;;8.73;92.90
58223;BME280;44020;50.890;15.796;2022-12-24T04:53:59;96504.92;;;8.75;92.62
58223;BME280;44020;50.890;15.796;2022-12-24T04:56:30;96509.09;;;8.77;92.46
58223;BME280;44020;50.890;15.796;2022-12-24T04:58:59;96505.83;;;8.77;92.37
58223;BME280;44020;50.890;15.796;2022-12-24T05:01:30;96512.36;;;8.78;91.92
58223;BME280;44020;50.890;15.796;2022-12-24T05:03:58;96515.66;;;8.78;91.63
58223;BME280;44020;50.890;15.796;2022-12-24T05:06:29;96510.58;;;8.80;91.75
58223;BME280;44020;50.890;15.796;2022-12-24T05:08:57;96513.48;;;8.77;91.99
58223;BME280;44020;50.890;15.796;2022-12-24T05:11:25;96520.31;;;8.78;92.15
58223;BME280;44020;50.890;15.796;2022-12-24T05:13:53;96527.00;;;8.78;92.15
58223;BME280;44020;50.890;15.796;2022-12-24T05:16:21;96526.23;;;8.79;91.79
58223;BME280;44020;50.890;15.796;2022-12-24T05:18:53;96531.45;;;8.78;91.79
58223;BME280;44020;50.890;15.796;2022-12-24T05:21:23;96543.91;;;8.80;91.45
58223;BME280;44020;50.890;15.796;2022-12-24T05:23:50;96539.55;;;8.81;91.57
58223;BME280;44020;50.890;15.796;2022-12-24T05:26:50;96543.02;;;8.79;91.85
58223;BME280;44020;50.890;15.796;2022-12-24T05:29:19;96545.16;;;8.81;92.06
58223;BME280;44020;50.890;15.796;2022-12-24T05:31:46;96543.95;;;8.81;92.01
58223;BME280;44020;50.890;15.796;2022-12-24T05:34:15;96548.74;;;8.81;91.90
58223;BME280;44020;50.890;15.796;2022-12-24T05:36:43;96553.96;;;8.80;91.79
58223;BME280;44020;50.890;15.796;2022-12-24T05:39:15;96557.38;;;8.79;91.59
58223;BME280;44020;50.890;15.796;2022-12-24T05:41:43;96559.84;;;8.80;91.75
58223;BME280;44020;50.890;15.796;2022-12-24T05:44:11;96563.27;;;8.79;91.76
58223;BME280;44020;50.890;15.796;2022-12-24T05:46:39;96570.68;;;8.79;91.92
58223;BME280;44020;50.890;15.796;2022-12-24T05:49:06;96572.78;;;8.82;91.98
58223;BME280;44020;50.890;15.796;2022-12-24T05:51:34;96579.00;;;8.83;91.58
58223;BME280;44020;50.890;15.796;2022-12-24T05:54:01;96583.73;;;8.84;91.13
58223;BME280;44020;50.890;15.796;2022-12-24T05:56:28;96589.00;;;8.82;91.08
58223;BME280;44020;50.890;15.796;2022-12-24T05:58:56;96593.95;;;8.85;90.78
58223;BME280;44020;50.890;15.796;2022-12-24T06:01:24;96595.02;;;8.82;91.09
58223;BME280;44020;50.890;15.796;2022-12-24T06:03:52;96599.84;;;8.84;91.32
58223;BME280;44020;50.890;15.796;2022-12-24T06:06:25;96601.31;;;8.86;91.39
58223;BME280;44020;50.890;15.796;2022-12-24T06:08:54;96598.63;;;8.86;91.32
58223;BME280;44020;50.890;15.796;2022-12-24T06:11:24;96601.77;;;8.86;91.07
58223;BME280;44020;50.890;15.796;2022-12-24T06:13:52;96607.83;;;8.86;91.01
58223;BME280;44020;50.890;15.796;2022-12-24T06:16:21;96613.60;;;8.87;90.99
58223;BME280;44020;50.890;15.796;2022-12-24T06:18:48;96613.96;;;8.89;91.22
58223;BME280;44020;50.890;15.796;2022-12-24T06:21:16;96621.75;;;8.89;91.31
58223;BME280;44020;50.890;15.796;2022-12-24T06:23:44;96626.95;;;8.88;91.21
58223;BME280;44020;50.890;15.796;2022-12-24T06:26:14;96633.35;;;8.88;91.14
58223;BME280;44020;50.890;15.796;2022-12-24T06:28:43;96629.60;;;8.88;90.74
58223;BME280;44020;50.890;15.796;2022-12-24T06:31:13;96632.66;;;8.88;91.16
58223;BME280;44020;50.890;15.796;2022-12-24T06:33:41;96632.04;;;8.89;91.31
58223;BME280;44020;50.890;15.796;2022-12-24T06:36:13;96633.98;;;8.91;91.33
58223;BME280;44020;50.890;15.796;2022-12-24T06:38:41;96628.45;;;8.91;91.21
58223;BME280;44020;50.890;15.796;2022-12-24T06:41:08;96629.34;;;8.91;91.29
58223;BME280;44020;50.890;15.796;2022-12-24T06:43:36;96638.61;;;8.93;90.89
58223;BME280;44020;50.890;15.796;2022-12-24T06:46:03;96645.45;;;8.94;90.05
58223;BME280;44020;50.890;15.796;2022-12-24T06:48:31;96643.17;;;8.93;89.84
58223;BME280;44020;50.890;15.796;2022-12-24T06:51:01;96652.23;;;8.93;89.90
58223;BME280;44020;50.890;15.796;2022-12-24T06:53:30;96655.23;;;8.93;90.06
58223;BME280;44020;50.890;15.796;2022-12-24T06:56:08;96664.73;;;8.94;90.17
58223;BME280;44020;50.890;15.796;2022-12-24T06:58:37;96670.02;;;8.92;90.11
58223;BME280;44020;50.890;15.796;2022-12-24T07:01:06;96671.18;;;8.91;89.99
58223;BME280;44020;50.890;15.796;2022-12-24T07:03:34;96681.14;;;8.88;89.69
58223;BME280;44020;50.890;15.796;2022-12-24T07:06:01;96679.90;;;8.86;89.95
58223;BME280;44020;50.890;15.796;2022-12-24T07:08:29;96684.14;;;8.84;90.16
58223;BME280;44020;50.890;15.796;2022-12-24T07:10:59;96685.31;;;8.85;90.30
58223;BME280;44020;50.890;15.796;2022-12-24T07:13:26;96688.98;;;8.83;90.16
58223;BME280;44020;50.890;15.796;2022-12-24T07:16:00;96699.66;;;8.83;89.83
58223;BME280;44020;50.890;15.796;2022-12-24T07:18:27;96703.80;;;8.82;89.35
58223;BME280;44020;50.890;15.796;2022-12-24T07:20:55;96707.54;;;8.82;89.38
58223;BME280;44020;50.890;15.796;2022-12-24T07:23:22;96710.34;;;8.82;89.60
58223;BME280;44020;50.890;15.796;2022-12-24T07:25:49;96721.78;;;8.81;89.79
58223;BME280;44020;50.890;15.796;2022-12-24T07:28:16;96729.73;;;8.81;89.96
58223;BME280;44020;50.890;15.796;2022-12-24T07:30:44;96738.69;;;8.80;89.87
58223;BME280;44020;50.890;15.796;2022-12-24T07:33:11;96747.27;;;8.79;89.53
58223;BME280;44020;50.890;15.796;2022-12-24T07:35:38;96747.34;;;8.78;89.28
58223;BME280;44020;50.890;15.796;2022-12-24T07:38:06;96751.20;;;8.76;89.46
58223;BME280;44020;50.890;15.796;2022-12-24T07:40:33;96756.77;;;8.75;89.79
58223;BME280;44020;50.890;15.796;2022-12-24T07:43:01;96765.61;;;8.78;89.87
58223;BME280;44020;50.890;15.796;2022-12-24T07:45:28;96766.81;;;8.78;89.48
58223;BME280;44020;50.890;15.796;2022-12-24T07:47:55;96772.29;;;8.76;89.12
58223;BME280;44020;50.890;15.796;2022-12-24T07:50:22;96771.92;;;8.74;88.99
58223;BME280;44020;50.890;15.796;2022-12-24T07:52:49;96770.94;;;8.73;89.32
58223;BME280;44020;50.890;15.796;2022-12-24T07:55:17;96772.95;;;8.74;89.50
58223;BME280;44020;50.890;15.796;2022-12-24T07:57:44;96785.11;;;8.75;89.33
58223;BME280;44020;50.890;15.796;2022-12-24T08:00:12;96787.05;;;8.73;89.25
58223;BME280;44020;50.890;15.796;2022-12-24T08:02:39;96793.41;;;8.71;89.20
58223;BME280;44020;50.890;15.796;2022-12-24T08:05:07;96798.04;;;8.70;89.21
58223;BME280;44020;50.890;15.796;2022-12-24T08:07:34;96804.73;;;8.71;89.22
58223;BME280;44020;50.890;15.796;2022-12-24T08:10:02;96807.36;;;8.71;89.28
58223;BME280;44020;50.890;15.796;2022-12-24T08:12:29;96820.42;;;8.69;89.23
58223;BME280;44020;50.890;15.796;2022-12-24T08:14:56;96824.73;;;8.69;89.06
58223;BME280;44020;50.890;15.796;2022-12-24T08:17:24;96825.48;;;8.65;89.26
58223;BME280;44020;50.890;15.796;2022-12-24T08:19:51;96824.00;;;8.57;89.42
58223;BME280;44020;50.890;15.796;2022-12-24T08:22:18;96825.37;;;8.53;89.98
58223;BME280;44020;50.890;15.796;2022-12-24T08:24:45;96832.60;;;8.51;90.44
58223;BME280;44020;50.890;15.796;2022-12-24T08:27:13;96836.17;;;8.48;90.52
58223;BME280;44020;50.890;15.796;2022-12-24T08:29:40;96845.59;;;8.50;90.25
58223;BME280;44020;50.890;15.796;2022-12-24T08:32:07;96851.83;;;8.52;89.47
58223;BME280;44020;50.890;15.796;2022-12-24T08:34:34;96861.26;;;8.51;89.04
58223;BME280;44020;50.890;15.796;2022-12-24T08:37:02;96863.11;;;8.53;88.51
58223;BME280;44020;50.890;15.796;2022-12-24T08:39:29;96865.52;;;8.54;88.33
58223;BME280;44020;50.890;15.796;2022-12-24T08:41:56;96862.35;;;8.55;88.06
58223;BME280;44020;50.890;15.796;2022-12-24T08:44:24;96864.30;;;8.58;87.38
58223;BME280;44020;50.890;15.796;2022-12-24T08:46:51;96875.30;;;8.60;87.04
58223;BME280;44020;50.890;15.796;2022-12-24T08:49:18;96879.55;;;8.63;86.03
58223;BME280;44020;50.890;15.796;2022-12-24T08:51:45;96881.52;;;8.60;86.23
58223;BME280;44020;50.890;15.796;2022-12-24T08:54:13;96890.48;;;8.61;85.94
58223;BME280;44020;50.890;15.796;2022-12-24T08:56:40;96900.60;;;8.63;85.55
58223;BME280;44020;50.890;15.796;2022-12-24T08:59:07;96902.80;;;8.62;85.50
58223;BME280;44020;50.890;15.796;2022-12-24T09:01:34;96918.44;;;8.61;85.87
58223;BME280;44020;50.890;15.796;2022-12-24T09:04:01;96919.79;;;8.62;85.79
58223;BME280;44020;50.890;15.796;2022-12-24T09:06:31;96925.52;;;8.63;85.46
58223;BME280;44020;50.890;15.796;2022-12-24T09:08:58;96929.48;;;8.63;85.07
58223;BME280;44020;50.890;15.796;2022-12-24T09:11:25;96929.30;;;8.61;84.92
58223;BME280;44020;50.890;15.796;2022-12-24T09:13:54;96929.86;;;8.60;85.01
58223;BME280;44020;50.890;15.796;2022-12-24T09:16:22;96932.09;;;8.59;85.35
58223;BME280;44020;50.890;15.796;2022-12-24T09:18:49;96937.05;;;8.61;85.12
58223;BME280;44020;50.890;15.796;2022-12-24T09:21:16;96935.72;;;8.60;84.58
58223;BME280;44020;50.890;15.796;2022-12-24T09:23:46;96941.39;;;8.57;84.73
58223;BME280;44020;50.890;15.796;2022-12-24T09:26:20;96944.23;;;8.57;84.31
58223;BME280;44020;50.890;15.796;2022-12-24T09:28:49;96954.86;;;8.57;83.86
58223;BME280;44020;50.890;15.796;2022-12-24T09:31:18;96954.17;;;8.54;84.08
58223;BME280;44020;50.890;15.796;2022-12-24T09:33:46;96960.66;;;8.55;84.22
58223;BME280;44020;50.890;15.796;2022-12-24T09:36:14;96956.02;;;8.55;84.14
58223;BME280;44020;50.890;15.796;2022-12-24T09:38:42;96962.56;;;8.56;83.83
58223;BME280;44020;50.890;15.796;2022-12-24T09:43:54;96962.14;;;8.54;83.41
58223;BME280;44020;50.890;15.796;2022-12-24T09:46:44;96971.70;;;8.57;82.83
58223;BME280;44020;50.890;15.796;2022-12-24T09:49:21;96976.16;;;8.56;82.79
58223;BME280;44020;50.890;15.796;2022-12-24T09:52:05;96976.36;;;8.56;82.94
58223;BME280;44020;50.890;15.796;2022-12-24T09:54:37;96984.98;;;8.57;83.02
58223;BME280;44020;50.890;15.796;2022-12-24T09:57:31;96990.19;;;8.58;82.37
58223;BME280;44020;50.890;15.796;2022-12-24T10:00:01;96988.73;;;8.59;81.82
58223;BME280;44020;50.890;15.796;2022-12-24T10:02:31;96993.39;;;8.58;81.56
58223;BME280;44020;50.890;15.796;2022-12-24T10:04:58;96998.62;;;8.59;81.55
58223;BME280;44020;50.890;15.796;2022-12-24T10:07:54;96993.59;;;8.55;81.97
58223;BME280;44020;50.890;15.796;2022-12-24T10:10:54;96989.25;;;8.59;81.45
58223;BME280;44020;50.890;15.796;2022-12-24T10:27:21;97003.46;;;8.61;81.12
58223;BME280;44020;50.890;15.796;2022-12-24T10:29:55;97010.31;;;8.61;81.30
58223;BME280;44020;50.890;15.796;2022-12-24T10:32:28;97018.38;;;8.67;79.86
58223;BME280;44020;50.890;15.796;2022-12-24T10:37:31;97028.59;;;8.68;80.12
58223;BME280;44020;50.890;15.796;2022-12-24T10:39:59;97029.46;;;8.71;79.84
58223;BME280;44020;50.890;15.796;2022-12-24T10:42:39;97036.00;;;8.71;80.52
58223;BME280;44020;50.890;15.796;2022-12-24T10:45:15;97036.48;;;8.77;80.13
58223;BME280;44020;50.890;15.796;2022-12-24T10:47:45;97037.47;;;8.78;79.54
58223;BME280;44020;50.890;15.796;2022-12-24T10:50:28;97047.59;;;8.79;79.20
58223;BME280;44020;50.890;15.796;2022-12-24T10:53:05;97051.48;;;8.80;78.97
58223;BME280;44020;50.890;15.796;2022-12-24T10:55:33;97057.91;;;8.81;78.49
58223;BME280;44020;50.890;15.796;2022-12-24T10:58:04;97062.58;;;8.78;78.79
58223;BME280;44020;50.890;15.796;2022-12-24T11:00:32;97065.33;;;8.79;79.42
58223;BME280;44020;50.890;15.796;2022-12-24T11:08:36;97075.04;;;8.72;80.30
58223;BME280;44020;50.890;15.796;2022-12-24T11:11:07;97075.98;;;8.69;80.50
58223;BME280;44020;50.890;15.796;2022-12-24T11:13:45;97074.67;;;8.65;81.10
58223;BME280;44020;50.890;15.796;2022-12-24T11:18:49;97077.14;;;8.63;81.97
58223;BME280;44020;50.890;15.796;2022-12-24T11:21:25;97087.54;;;8.66;82.43
58223;BME280;44020;50.890;15.796;2022-12-24T11:23:56;97080.77;;;8.69;82.27
58223;BME280;44020;50.890;15.796;2022-12-24T11:26:29;97085.66;;;8.72;82.26
58223;BME280;44020;50.890;15.796;2022-12-24T11:31:34;97090.16;;;8.81;81.75
58223;BME280;44020;50.890;15.796;2022-12-24T11:34:25;97097.20;;;8.89;81.26
58223;BME280;44020;50.890;15.796;2022-12-24T11:37:06;97093.76;;;8.95;81.38
58223;BME280;44020;50.890;15.796;2022-12-24T11:39:48;97101.55;;;9.00;81.78
58223;BME280;44020;50.890;15.796;2022-12-24T11:42:35;97100.14;;;9.04;81.54
58223;BME280;44020;50.890;15.796;2022-12-24T11:45:13;97108.70;;;9.11;81.18
58223;BME280;44020;50.890;15.796;2022-12-24T11:47:43;97113.17;;;9.20;80.64
58223;BME280;44020;50.890;15.796;2022-12-24T11:50:28;97116.23;;;9.26;79.93
58223;BME280;44020;50.890;15.796;2022-12-24T11:53:10;97113.28;;;9.30;79.72
58223;BME280;44020;50.890;15.796;2022-12-24T11:55:46;97119.38;;;9.34;79.13
58223;BME280;44020;50.890;15.796;2022-12-24T11:58:19;97115.77;;;9.37;78.56
58223;BME280;44020;50.890;15.796;2022-12-24T12:00:50;97115.36;;;9.35;78.48
58223;BME280;44020;50.890;15.796;2022-12-24T12:06:00;97122.76;;;9.34;78.38
58223;BME280;44020;50.890;15.796;2022-12-24T12:08:29;97129.44;;;9.32;78.51
58223;BME280;44020;50.890;15.796;2022-12-24T12:10:58;97130.21;;;9.31;77.74
58223;BME280;44020;50.890;15.796;2022-12-24T12:13:29;97138.66;;;9.30;77.17
58223;BME280;44020;50.890;15.796;2022-12-24T12:18:38;97145.74;;;9.23;76.85
58223;BME280;44020;50.890;15.796;2022-12-24T12:21:38;97142.33;;;9.24;76.40
58223;BME280;44020;50.890;15.796;2022-12-24T12:24:18;97142.13;;;9.24;76.86
58223;BME280;44020;50.890;15.796;2022-12-24T12:26:57;97150.09;;;9.24;75.71
58223;BME280;44020;50.890;15.796;2022-12-24T12:29:41;97155.64;;;9.21;75.75
58223;BME280;44020;50.890;15.796;2022-12-24T12:32:21;97160.39;;;9.21;76.04
58223;BME280;44020;50.890;15.796;2022-12-24T12:35:00;97172.16;;;9.25;76.30
58223;BME280;44020;50.890;15.796;2022-12-24T12:37:38;97174.85;;;9.30;76.38
58223;BME280;44020;50.890;15.796;2022-12-24T12:40:15;97176.96;;;9.32;75.80
58223;BME280;44020;50.890;15.796;2022-12-24T12:42:58;97181.73;;;9.34;74.86
58223;BME280;44020;50.890;15.796;2022-12-24T12:45:54;97184.45;;;9.34;74.79
58223;BME280;44020;50.890;15.796;2022-12-24T12:51:05;97197.00;;;9.32;74.42
58223;BME280;44020;50.890;15.796;2022-12-24T12:56:33;97202.80;;;9.30;73.96
58223;BME280;44020;50.890;15.796;2022-12-24T12:59:09;97204.70;;;9.29;74.22
58223;BME280;44020;50.890;15.796;2022-12-24T13:07:20;97197.64;;;9.33;74.13
58223;BME280;44020;50.890;15.796;2022-12-24T13:13:27;97191.34;;;9.39;74.72
58223;BME280;44020;50.890;15.796;2022-12-24T13:18:57;97202.52;;;9.49;74.63
58223;BME280;44020;50.890;15.796;2022-12-24T13:21:28;97205.57;;;9.53;74.37
58223;BME280;44020;50.890;15.796;2022-12-24T13:24:13;97202.06;;;9.52;74.43
58223;BME280;44020;50.890;15.796;2022-12-24T13:27:01;97207.14;;;9.49;73.50
58223;BME280;44020;50.890;15.796;2022-12-24T13:29:43;97208.52;;;9.39;73.43
58223;BME280;44020;50.890;15.796;2022-12-24T13:37:47;97210.09;;;9.30;73.95
58223;BME280;44020;50.890;15.796;2022-12-24T13:40:16;97214.00;;;9.27;74.10
58223;BME280;44020;50.890;15.796;2022-12-24T13:43:08;97211.65;;;9.26;74.06
58223;BME280;44020;50.890;15.796;2022-12-24T13:50:39;97220.21;;;9.15;74.28
58223;BME280;44020;50.890;15.796;2022-12-24T13:55:54;97224.60;;;9.16;75.10
58223;BME280;44020;50.890;15.796;2022-12-24T13:58:24;97225.86;;;9.15;74.99
58223;BME280;44020;50.890;15.796;2022-12-24T14:01:05;97227.79;;;9.16;74.73
58223;BME280;44020;50.890;15.796;2022-12-24T14:03:51;97229.73;;;9.16;74.27
58223;BME280;44020;50.890;15.796;2022-12-24T14:06:26;97230.63;;;9.13;74.65
58223;BME280;44020;50.890;15.796;2022-12-24T14:09:03;97237.30;;;9.14;74.73
58223;BME280;44020;50.890;15.796;2022-12-24T14:14:30;97261.64;;;9.16;74.84
58223;BME280;44020;50.890;15.796;2022-12-24T14:17:14;97257.99;;;9.15;73.94
58223;BME280;44020;50.890;15.796;2022-12-24T14:19:51;97258.27;;;9.11;74.28
58223;BME280;44020;50.890;15.796;2022-12-24T14:22:36;97268.75;;;9.10;74.33
58223;BME280;44020;50.890;15.796;2022-12-24T14:25:20;97274.85;;;9.09;74.11
58223;BME280;44020;50.890;15.796;2022-12-24T14:27:53;97283.06;;;9.06;74.12
58223;BME280;44020;50.890;15.796;2022-12-24T14:30:27;97286.73;;;9.04;74.57
58223;BME280;44020;50.890;15.796;2022-12-24T14:32:56;97289.35;;;9.05;75.00
58223;BME280;44020;50.890;15.796;2022-12-24T14:35:29;97291.17;;;9.04;75.32
58223;BME280;44020;50.890;15.796;2022-12-24T14:38:07;97295.05;;;9.05;74.96
58223;BME280;44020;50.890;15.796;2022-12-24T14:41:39;97297.92;;;9.02;74.73
58223;BME280;44020;50.890;15.796;2022-12-24T14:46:26;97306.39;;;8.94;74.53
58223;BME280;44020;50.890;15.796;2022-12-24T14:49:03;97312.09;;;8.89;74.67
58223;BME280;44020;50.890;15.796;2022-12-24T14:51:42;97315.58;;;8.87;74.64
58223;BME280;44020;50.890;15.796;2022-12-24T14:54:42;97323.33;;;8.85;74.72